createdAt,value
2023-05-20T00:00:56.836Z,53.87
2023-05-20T00:03:26.776Z,53.52
2023-05-20T00:05:56.660Z,54.07
2023-05-20T00:08:29.060Z,54.30
2023-05-20T00:10:58.795Z,54.58
2023-05-20T00:13:28.626Z,54.92
2023-05-20T00:15:58.396Z,54.05
2023-05-20T00:18:28.289Z,53.62
2023-05-20T00:20:58.185Z,53.75
2023-05-20T00:23:30.757Z,54.05
2023-05-20T00:26:01.028Z,53.89
2023-05-20T00:28:31.126Z,53.86
2023-05-20T00:31:01.119Z,53.76
2023-05-20T00:33:30.974Z,54.17
2023-05-20T00:36:00.988Z,54.20
2023-05-20T00:38:33.482Z,54.05
2023-05-20T00:41:03.379Z,54.02
2023-05-20T00:43:35.569Z,54.85
2023-05-20T00:46:05.507Z,54.81
2023-05-20T00:48:41.764Z,54.95
2023-05-20T00:51:11.985Z,55.28
2023-05-20T00:53:44.716Z,54.98
2023-05-20T00:56:15.080Z,55.03
2023-05-20T00:58:44.956Z,55.57
2023-05-20T01:01:14.770Z,56.07
2023-05-20T01:03:44.802Z,55.75
2023-05-20T01:06:14.647Z,55.47
2023-05-20T01:08:47.139Z,55.62
2023-05-20T01:11:22.395Z,55.47
2023-05-20T01:13:56.223Z,55.33
2023-05-20T01:16:27.351Z,55.59
2023-05-20T01:18:59.297Z,56.04
2023-05-20T01:21:33.112Z,55.47
2023-05-20T01:24:06.090Z,55.61
2023-05-20T01:26:38.555Z,55.68
2023-05-20T01:29:08.467Z,55.96
2023-05-20T01:31:41.311Z,56.18
2023-05-20T01:34:11.303Z,55.73
2023-05-20T01:36:42.079Z,55.65
2023-05-20T01:39:14.615Z,56.12
2023-05-20T01:41:44.671Z,56.09
2023-05-20T01:44:14.588Z,55.95
2023-05-20T01:46:44.712Z,56.18
2023-05-20T01:49:14.630Z,56.54
2023-05-20T01:51:44.580Z,56.36
2023-05-20T01:54:17.110Z,56.37
2023-05-20T01:56:47.309Z,56.21
2023-05-20T01:59:17.986Z,55.94
2023-05-20T02:01:47.927Z,56.38
2023-05-20T02:04:19.322Z,56.43
2023-05-20T02:06:49.374Z,56.51
2023-05-20T02:09:21.815Z,56.62
2023-05-20T02:11:51.602Z,56.52
2023-05-20T02:14:21.356Z,56.78
2023-05-20T02:16:51.270Z,57.14
2023-05-20T02:19:24.088Z,56.80
2023-05-20T02:21:54.392Z,57.42
2023-05-20T02:24:26.839Z,57.70
2023-05-20T02:26:59.139Z,57.46
2023-05-20T02:29:29.828Z,57.87
2023-05-20T02:31:59.799Z,58.28
2023-05-20T02:34:31.772Z,57.93
2023-05-20T02:37:01.698Z,58.32
2023-05-20T02:39:34.863Z,58.68
2023-05-20T02:42:04.812Z,58.70
2023-05-20T02:44:34.604Z,58.44
2023-05-20T02:47:04.569Z,58.33
2023-05-20T02:49:34.308Z,58.50
2023-05-20T02:52:05.034Z,58.53
2023-05-20T02:54:37.833Z,58.90
2023-05-20T02:57:07.882Z,59.30
2023-05-20T02:59:37.757Z,59.61
2023-05-20T03:02:08.117Z,59.53
2023-05-20T03:04:39.080Z,59.53
2023-05-20T03:07:09.128Z,59.57
2023-05-20T03:09:41.559Z,59.72
2023-05-20T03:12:11.446Z,59.97
2023-05-20T03:14:41.242Z,59.76
2023-05-20T03:17:11.840Z,60.09
2023-05-20T03:19:41.755Z,59.76
2023-05-20T03:22:11.862Z,59.58
2023-05-20T03:24:44.560Z,60.18
2023-05-20T03:27:16.246Z,60.15
2023-05-20T03:29:46.157Z,60.61
2023-05-20T03:32:16.353Z,60.49
2023-05-20T03:34:46.252Z,60.82
2023-05-20T03:37:16.136Z,60.42
2023-05-20T03:39:48.583Z,60.55
2023-05-20T03:42:18.452Z,60.54
2023-05-20T03:44:48.288Z,60.66
2023-05-20T03:47:18.993Z,60.89
2023-05-20T03:49:48.777Z,60.78
2023-05-20T03:52:18.630Z,61.20
2023-05-20T03:54:51.700Z,61.05
2023-05-20T03:57:21.451Z,61.32
2023-05-20T03:59:51.430Z,61.11
2023-05-20T04:02:21.404Z,61.43
2023-05-20T04:04:53.360Z,61.12
2023-05-20T04:07:23.520Z,61.32
2023-05-20T04:09:55.982Z,61.02
2023-05-20T04:12:30.693Z,61.47
2023-05-20T04:15:01.484Z,61.89
2023-05-20T04:17:34.790Z,61.91
2023-05-20T04:20:06.277Z,62.76
2023-05-20T04:22:37.478Z,62.83
2023-05-20T04:25:10.646Z,62.87
2023-05-20T04:27:40.557Z,62.97
2023-05-20T04:30:11.432Z,63.08
2023-05-20T04:32:43.668Z,63.36
2023-05-20T04:35:14.760Z,63.27
2023-05-20T04:37:48.198Z,63.08
2023-05-20T04:40:21.226Z,63.42
2023-05-20T04:42:51.224Z,63.22
2023-05-20T04:45:23.453Z,63.25
2023-05-20T04:47:53.774Z,63.37
2023-05-20T04:50:24.101Z,63.55
2023-05-20T04:52:54.019Z,63.77
2023-05-20T04:55:27.724Z,63.79
2023-05-20T04:57:57.541Z,64.35
2023-05-20T05:00:27.701Z,63.44
2023-05-20T05:02:57.591Z,64.10
2023-05-20T05:05:27.607Z,63.96
2023-05-20T05:07:57.409Z,63.02
2023-05-20T05:10:30.108Z,63.63
2023-05-20T05:12:59.923Z,63.32
2023-05-20T05:15:29.854Z,63.99
2023-05-20T05:18:00.096Z,63.98
2023-05-20T05:20:30.068Z,64.14
2023-05-20T05:22:59.979Z,63.61
2023-05-20T05:25:32.906Z,64.05
2023-05-20T05:28:03.260Z,63.79
2023-05-20T05:30:33.598Z,63.88
2023-05-20T05:33:04.504Z,63.54
2023-05-20T05:35:34.879Z,63.38
2023-05-20T05:38:05.013Z,64.23
2023-05-20T05:40:38.568Z,64.30
2023-05-20T05:43:08.471Z,64.24
2023-05-20T05:45:38.954Z,64.17
2023-05-20T05:48:08.981Z,64.07
2023-05-20T05:50:38.983Z,64.13
2023-05-20T05:53:09.002Z,64.13
2023-05-20T05:55:42.916Z,63.71
2023-05-20T05:58:13.336Z,63.99
2023-05-20T06:00:43.401Z,63.79
2023-05-20T06:03:13.634Z,65.06
2023-05-20T06:05:43.654Z,64.32
2023-05-20T06:08:13.562Z,64.75
2023-05-20T06:10:50.858Z,63.52
2023-05-20T06:13:21.084Z,63.76
2023-05-20T06:15:53.771Z,63.32
2023-05-20T06:18:23.793Z,63.72
2023-05-20T06:21:00.192Z,63.25
2023-05-20T06:23:30.271Z,63.09
2023-05-20T06:26:09.262Z,62.73
2023-05-20T06:28:39.227Z,63.14
2023-05-20T06:31:09.287Z,63.19
2023-05-20T06:33:39.909Z,63.22
2023-05-20T06:36:13.362Z,63.56
2023-05-20T06:38:44.144Z,63.11
2023-05-20T06:41:18.444Z,62.54
2023-05-20T06:43:49.101Z,62.66
2023-05-20T06:46:38.404Z,62.09
2023-05-20T06:49:10.600Z,62.81
2023-05-20T06:51:40.575Z,62.50
2023-05-20T06:54:11.500Z,63.31
2023-05-20T06:56:44.561Z,62.61
2023-05-20T06:59:14.645Z,63.24
2023-05-20T07:01:45.303Z,63.18
2023-05-20T07:04:15.712Z,62.16
2023-05-20T07:06:46.094Z,62.23
2023-05-20T07:09:16.621Z,61.96
2023-05-20T07:11:52.033Z,61.79
2023-05-20T07:14:29.489Z,61.79
2023-05-20T07:20:40.580Z,63.08
2023-05-20T07:23:28.140Z,62.33
2023-05-20T07:29:50.427Z,60.70
2023-05-20T07:32:23.446Z,61.58
2023-05-20T07:34:53.414Z,62.33
2023-05-20T07:37:23.441Z,60.95
2023-05-20T07:39:53.434Z,59.78
2023-05-20T07:42:24.967Z,60.91
2023-05-20T07:44:59.727Z,59.11
2023-05-20T07:47:34.195Z,58.26
2023-05-20T07:50:05.303Z,59.77
2023-05-20T07:52:51.822Z,58.97
2023-05-20T07:55:27.560Z,58.81
2023-05-20T07:57:58.676Z,59.86
2023-05-20T08:00:29.084Z,58.40
2023-05-20T08:03:08.507Z,58.73
2023-05-20T08:06:17.404Z,57.50
2023-05-20T08:08:47.554Z,57.08
2023-05-20T08:11:23.132Z,56.28
2023-05-20T08:13:53.173Z,56.65
2023-05-20T08:16:25.418Z,56.49
2023-05-20T08:18:58.240Z,55.23
2023-05-20T08:21:28.957Z,53.92
2023-05-20T08:23:58.865Z,53.62
2023-05-20T08:26:29.028Z,54.34
2023-05-20T08:28:59.162Z,54.06
2023-05-20T08:31:29.668Z,51.63
2023-05-20T08:34:02.514Z,54.42
2023-05-20T08:36:32.847Z,50.28
2023-05-20T08:39:02.928Z,51.31
2023-05-20T08:41:32.874Z,49.69
2023-05-20T08:44:04.147Z,48.67
2023-05-20T08:46:35.389Z,48.00
2023-05-20T08:49:08.309Z,48.68
2023-05-20T08:51:39.867Z,48.51
2023-05-20T08:54:10.457Z,48.14
2023-05-20T08:56:42.164Z,48.25
2023-05-20T08:59:12.398Z,48.58
2023-05-20T09:01:46.001Z,47.71
2023-05-20T09:04:18.682Z,48.11
2023-05-20T09:06:49.736Z,48.88
2023-05-20T09:09:19.732Z,47.60
2023-05-20T09:11:49.747Z,47.05
2023-05-20T09:14:19.853Z,47.54
2023-05-20T09:16:51.898Z,47.19
2023-05-20T09:19:26.932Z,48.40
2023-05-20T09:21:58.682Z,49.17
2023-05-20T09:24:29.432Z,48.51
2023-05-20T09:27:00.268Z,47.35
2023-05-20T09:29:30.341Z,46.86
2023-05-20T09:32:00.352Z,47.28
2023-05-20T09:34:32.877Z,46.83
2023-05-20T09:37:03.659Z,48.37
2023-05-20T09:39:37.137Z,48.31
2023-05-20T09:42:10.228Z,48.91
2023-05-20T09:44:41.381Z,48.62
2023-05-20T09:47:12.210Z,49.06
2023-05-20T09:49:45.236Z,49.81
2023-05-20T09:52:15.592Z,50.38
2023-05-20T09:54:46.247Z,50.31
2023-05-20T09:57:16.609Z,49.64
2023-05-20T09:59:47.363Z,50.26
2023-05-20T10:02:17.678Z,49.83
2023-05-20T10:04:53.248Z,48.19
2023-05-20T10:07:46.657Z,49.28
2023-05-20T10:10:26.821Z,47.36
2023-05-20T10:13:04.817Z,49.37
2023-05-20T10:15:43.403Z,48.46
2023-05-20T10:18:21.333Z,49.50
2023-05-20T10:20:53.929Z,49.33
2023-05-20T10:23:25.462Z,49.44
2023-05-20T10:25:56.089Z,48.67
2023-05-20T10:28:33.163Z,50.56
2023-05-20T10:31:03.713Z,49.71
2023-05-20T10:33:34.029Z,49.42
2023-05-20T10:36:07.022Z,50.02
2023-05-20T10:38:37.043Z,49.49
2023-05-20T10:41:14.209Z,49.58
2023-05-20T10:43:45.070Z,50.40
2023-05-20T10:46:31.809Z,50.13
2023-05-20T10:49:05.660Z,49.69
2023-05-20T10:51:39.526Z,50.90
2023-05-20T10:54:12.749Z,50.75
2023-05-20T10:56:44.073Z,49.78
2023-05-20T10:59:14.037Z,49.23
2023-05-20T11:01:45.966Z,48.81
2023-05-20T11:04:16.814Z,49.05
2023-05-20T11:06:56.308Z,49.05
2023-05-20T11:09:26.379Z,48.98
2023-05-20T11:11:56.900Z,49.65
2023-05-20T11:14:26.787Z,48.60
2023-05-20T11:16:57.210Z,48.94
2023-05-20T11:19:27.185Z,49.28
2023-05-20T11:21:59.847Z,49.36
2023-05-20T11:24:31.518Z,49.01
2023-05-20T11:27:02.844Z,49.05
2023-05-20T11:29:33.584Z,48.24
2023-05-20T11:32:04.178Z,48.99
2023-05-20T11:34:37.964Z,48.29
2023-05-20T11:37:15.874Z,48.65
2023-05-20T11:39:46.328Z,47.70
2023-05-20T11:42:18.147Z,48.89
2023-05-20T11:44:49.179Z,49.47
2023-05-20T11:47:21.365Z,49.87
2023-05-20T11:49:52.536Z,50.28
2023-05-20T11:52:25.154Z,50.19
2023-05-20T11:54:56.071Z,50.08
2023-05-20T11:57:26.044Z,50.28
2023-05-20T11:59:56.154Z,50.58
2023-05-20T12:02:26.388Z,50.36
2023-05-20T12:05:13.225Z,50.50
2023-05-20T12:17:18.936Z,50.55
2023-05-20T12:19:48.999Z,51.08
2023-05-20T12:22:18.890Z,50.52
2023-05-20T12:24:48.857Z,51.53
2023-05-20T12:27:18.923Z,50.91
2023-05-20T12:29:51.486Z,51.38
2023-05-20T12:32:21.357Z,52.29
2023-05-20T12:34:51.183Z,50.96
2023-05-20T12:37:21.060Z,51.35
2023-05-20T12:39:50.998Z,50.86
2023-05-20T12:42:20.926Z,50.96
2023-05-20T12:44:53.532Z,51.90
2023-05-20T12:47:23.998Z,50.93
2023-05-20T12:49:53.744Z,52.10
2023-05-20T12:52:23.589Z,52.13
2023-05-20T12:54:53.425Z,52.19
2023-05-20T12:57:23.374Z,51.37
2023-05-20T12:59:55.894Z,52.52
2023-05-20T13:02:25.845Z,52.02
2023-05-20T13:04:56.162Z,52.02
2023-05-20T13:07:27.033Z,52.86
2023-05-20T13:09:56.965Z,52.62
2023-05-20T13:12:26.798Z,51.77
2023-05-20T13:14:59.207Z,51.36
2023-05-20T13:17:29.320Z,51.72
2023-05-20T13:19:59.493Z,50.97
2023-05-20T13:22:29.558Z,52.94
2023-05-20T13:24:59.273Z,52.09
2023-05-20T13:27:29.100Z,52.45
2023-05-20T13:30:02.002Z,52.70
2023-05-20T13:32:31.982Z,52.26
2023-05-20T13:35:01.820Z,52.04
2023-05-20T13:37:31.682Z,52.21
2023-05-20T13:40:01.599Z,52.67
2023-05-20T13:42:31.423Z,52.64
2023-05-20T13:45:03.863Z,53.17
2023-05-20T13:47:33.789Z,51.96
2023-05-20T13:50:04.088Z,52.23
2023-05-20T13:52:33.978Z,52.55
2023-05-20T13:55:03.750Z,51.37
2023-05-20T13:57:33.495Z,52.04
2023-05-20T14:00:07.267Z,51.29
2023-05-20T14:02:38.828Z,50.71
2023-05-20T14:05:10.269Z,50.59
2023-05-20T14:07:40.170Z,51.39
2023-05-20T14:10:11.884Z,50.31
2023-05-20T14:12:43.103Z,49.80
2023-05-20T14:15:15.829Z,49.86
2023-05-20T14:17:45.708Z,50.78
2023-05-20T14:20:16.081Z,50.85
2023-05-20T14:22:45.886Z,50.70
2023-05-20T14:25:15.742Z,50.18
2023-05-20T14:27:46.377Z,50.89
2023-05-20T14:30:18.645Z,49.77
2023-05-20T14:32:48.561Z,51.12
2023-05-20T14:35:19.365Z,50.18
2023-05-20T14:37:49.272Z,50.60
2023-05-20T14:40:19.389Z,50.67
2023-05-20T14:42:49.313Z,50.11
2023-05-20T14:45:23.101Z,49.66
2023-05-20T14:47:52.917Z,50.15
2023-05-20T14:50:22.931Z,50.74
2023-05-20T14:52:52.897Z,50.19
2023-05-20T14:55:22.693Z,50.66
2023-05-20T14:57:52.756Z,50.53
2023-05-20T15:00:25.214Z,50.80
2023-05-20T15:02:55.136Z,50.10
2023-05-20T15:05:24.938Z,51.34
2023-05-20T15:07:54.791Z,51.55
2023-05-20T15:10:24.649Z,51.29
2023-05-20T15:12:54.462Z,51.05
2023-05-20T15:15:26.866Z,50.94
2023-05-20T15:17:56.846Z,51.65
2023-05-20T15:20:26.610Z,52.02
2023-05-20T15:22:57.369Z,52.12
2023-05-20T15:25:28.330Z,52.60
2023-05-20T15:27:58.170Z,52.53
2023-05-20T15:30:30.754Z,51.83
2023-05-20T15:33:01.512Z,51.64
2023-05-20T15:35:31.539Z,52.31
2023-05-20T15:38:01.365Z,52.11
2023-05-20T15:40:32.200Z,52.40
2023-05-20T15:43:02.207Z,52.63
2023-05-20T15:45:34.623Z,53.18
2023-05-20T15:48:04.436Z,53.38
2023-05-20T15:50:35.364Z,53.38
2023-05-20T15:53:05.488Z,53.09
2023-05-20T15:55:35.340Z,53.55
2023-05-20T15:58:05.279Z,54.10
2023-05-20T16:00:37.855Z,54.15
2023-05-20T16:03:11.611Z,53.90
2023-05-20T16:05:42.521Z,54.04
2023-05-20T16:08:12.650Z,54.64
2023-05-20T16:10:45.021Z,54.29
2023-05-20T16:13:17.451Z,54.68
2023-05-20T16:15:52.347Z,54.40
2023-05-20T16:18:23.917Z,55.07
2023-05-20T16:21:07.759Z,55.04
2023-05-20T16:23:39.144Z,54.92
2023-05-20T16:26:34.650Z,55.15
2023-05-20T16:29:05.930Z,55.34
2023-05-20T16:31:38.408Z,55.16
2023-05-20T16:34:08.944Z,55.05
2023-05-20T16:36:39.140Z,56.52
2023-05-20T16:39:09.458Z,55.42
2023-05-20T16:41:41.194Z,55.53
2023-05-20T16:44:11.184Z,55.80
2023-05-20T16:46:43.526Z,55.76
2023-05-20T16:49:13.354Z,56.30
2023-05-20T16:51:43.193Z,56.17
2023-05-20T16:54:13.040Z,56.23
2023-05-20T16:56:42.855Z,55.98
2023-05-20T16:59:14.813Z,56.50
2023-05-20T17:01:47.378Z,56.43
2023-05-20T17:04:17.244Z,56.53
2023-05-20T17:06:49.956Z,56.43
2023-05-20T17:09:19.848Z,56.64
2023-05-20T17:11:49.698Z,56.84
2023-05-20T17:14:19.575Z,56.76
2023-05-20T17:16:52.098Z,57.27
2023-05-20T17:19:22.071Z,56.56
2023-05-20T17:21:52.011Z,56.84
2023-05-20T17:24:21.768Z,57.83
2023-05-20T17:26:51.540Z,56.93
2023-05-20T17:29:21.381Z,57.37
2023-05-20T17:31:53.846Z,57.79
2023-05-20T17:34:23.761Z,57.82
2023-05-20T17:36:54.088Z,57.38
2023-05-20T17:39:23.848Z,57.68
2023-05-20T17:41:53.583Z,57.70
2023-05-20T17:44:23.344Z,58.00
2023-05-20T17:46:55.758Z,58.04
2023-05-20T17:49:25.628Z,58.49
2023-05-20T17:51:55.545Z,58.45
2023-05-20T17:54:25.858Z,58.65
2023-05-20T17:56:55.664Z,58.87
2023-05-20T17:59:25.623Z,58.61
2023-05-20T18:01:58.095Z,58.78
2023-05-20T18:04:28.175Z,58.07
2023-05-20T18:06:58.277Z,58.25
2023-05-20T18:09:28.179Z,58.78
2023-05-20T18:12:15.478Z,59.18
2023-05-20T18:15:11.392Z,58.86
2023-05-20T18:21:14.565Z,59.20
2023-05-20T18:23:55.977Z,59.43
2023-05-20T18:26:41.282Z,59.36
2023-05-20T18:29:29.045Z,59.51
2023-05-20T18:32:09.052Z,59.47
2023-05-20T18:34:41.776Z,59.56
2023-05-20T18:37:14.560Z,59.83
2023-05-20T18:40:00.003Z,59.66
2023-05-20T18:48:37.902Z,60.00
2023-05-20T18:58:00.790Z,59.93
2023-05-20T19:01:03.783Z,60.27
2023-05-20T19:07:25.323Z,60.55
2023-05-20T19:10:54.663Z,60.76
2023-05-20T19:14:12.229Z,61.01
2023-05-20T19:16:44.056Z,60.71
2023-05-20T19:19:14.847Z,61.28
2023-05-20T19:21:44.832Z,61.33
2023-05-20T19:24:14.762Z,61.74
2023-05-20T19:26:47.332Z,61.53
2023-05-20T19:29:17.421Z,61.62
2023-05-20T19:31:52.459Z,61.55
2023-05-20T19:34:22.295Z,61.07
2023-05-20T19:36:52.953Z,61.21
2023-05-20T19:39:22.525Z,61.41
2023-05-20T19:41:55.134Z,61.75
2023-05-20T19:44:26.329Z,61.82
2023-05-20T19:46:56.621Z,62.07
2023-05-20T19:49:26.490Z,62.54
2023-05-20T19:51:56.260Z,62.46
2023-05-20T19:54:26.688Z,62.56
2023-05-20T19:56:59.034Z,62.57
2023-05-20T19:59:28.968Z,62.18
2023-05-20T20:02:03.005Z,62.47
2023-05-20T20:04:32.946Z,62.82
2023-05-20T20:07:03.573Z,62.30
2023-05-20T20:09:33.278Z,63.40
2023-05-20T20:12:06.245Z,62.96
2023-05-20T20:14:36.278Z,62.99
2023-05-20T20:17:06.490Z,62.76
2023-05-20T20:19:39.185Z,63.23
2023-05-20T20:22:08.987Z,63.55
2023-05-20T20:24:38.805Z,63.51
2023-05-20T20:27:13.463Z,63.79
2023-05-20T20:29:43.901Z,63.67
2023-05-20T20:32:13.936Z,63.73
2023-05-20T20:34:44.107Z,63.72
2023-05-20T20:37:15.500Z,63.66
2023-05-20T20:39:46.999Z,63.60
2023-05-20T20:42:19.672Z,63.71
2023-05-20T20:44:49.957Z,63.63
2023-05-20T20:47:20.054Z,63.65
2023-05-20T20:49:49.962Z,63.77
2023-05-20T20:52:19.928Z,64.06
2023-05-20T20:54:49.724Z,64.10
2023-05-20T20:57:22.215Z,63.77
2023-05-20T20:59:57.827Z,63.98
2023-05-20T21:02:27.785Z,64.44
2023-05-20T21:04:59.309Z,64.53
2023-05-20T21:07:30.568Z,64.34
2023-05-20T21:10:00.384Z,64.61
2023-05-20T21:12:32.800Z,64.55
2023-05-20T21:15:02.812Z,64.57
